Bookmark and Share
Track history (hours):
 

Maersk Visby

Last reported at 2014-Apr-16 19:07 UTC. Time now 2014-Apr-19 14:33 UTC.
Position N 26°35' W 078°57'.

Length 180 m; draft 9.1 m.

Type: Ship (hazmat cat D). MMSI: 564979000.

NotesDate/timePositionNaut miles runAvg speedWind from/ knotsBaromVisibWave heightAir tempDewpointWater temp
2014-Apr-16 19:07N 26°35' W 078°57'52 8.7
2014-Apr-16 13:13N 27°23' W 079°16'  
2014-Apr-13 02:20N 35°58' W 075°10'5110.6
2014-Apr-12 21:33N 36°43' W 075°40'10 9.6
2014-Apr-12 20:33N 36°49' W 075°48'9 9.3
2014-Apr-12 19:34N 36°55' W 075°57'1111.3
2014-Apr-12 18:33N 36°59' W 076°10'9 9.4
2014-Apr-12 17:33N 36°54' W 076°20'2 1.5
2014-Apr-12 16:31N 36°53' W 076°21'0 0.0
2014-Apr-12 15:31N 36°53' W 076°21'0 0.0
2014-Apr-12 14:26N 36°53' W 076°21'0 0.0
2014-Apr-12 13:04N 36°53' W 076°21'0 0.0
2014-Apr-12 12:31N 36°53' W 076°21'0 0.0
2014-Apr-12 11:32N 36°53' W 076°21'0 0.0
2014-Apr-12 10:25N 36°53' W 076°21'0 0.0
2014-Apr-12 09:32N 36°53' W 076°21'0 0.0
2014-Apr-12 08:32N 36°53' W 076°21'1 0.9
2014-Apr-12 07:32N 36°53' W 076°20'9 8.7
2014-Apr-12 06:33N 37°00' W 076°14'1212.2
2014-Apr-12 05:33N 36°57' W 075°60'1716.8
2014-Apr-12 04:33N 37°13' W 076°09'1716.9
2014-Apr-12 03:33N 37°29' W 076°04'7016.6
2014-Apr-11 23:19N 38°37' W 076°26'1317.1
2014-Apr-11 22:33N 38°50' W 076°24'1615.7
2014-Apr-11 21:33N 39°06' W 076°24'1111.2
2014-Apr-11 20:33N 39°14' W 076°33'1 1.1
2014-Apr-11 19:32N 39°15' W 076°33'0 0.0
2014-Apr-11 18:30N 39°15' W 076°33'0 0.0
2014-Apr-11 17:33N 39°15' W 076°33'0 0.0
2014-Apr-11 16:33N 39°15' W 076°33'0 0.0
2014-Apr-11 15:33N 39°15' W 076°33'0 0.0
2014-Apr-11 14:33N 39°15' W 076°33'0 0.0
2014-Apr-11 13:32N 39°15' W 076°33'0 0.0
2014-Apr-11 12:32N 39°15' W 076°33'0 0.0
2014-Apr-11 11:32N 39°15' W 076°33'3 3.5
2014-Apr-11 10:33N 39°12' W 076°31'1010.1
2014-Apr-11 09:34N 39°04' W 076°24'1414.2
2014-Apr-11 08:33N 38°50' W 076°24'8316.6
2014-Apr-11 03:33N 37°29' W 076°03'1716.8
2014-Apr-11 02:33N 37°12' W 076°09'1515.1
2014-Apr-11 01:33N 36°59' W 076°00'10 9.9
2014-Apr-11 00:33N 36°52' W 075°51'10 9.7
2014-Apr-10 23:33N 36°47' W 075°41'1313.4
2014-Apr-10 22:32N 36°51' W 075°24'15113.4
2014-Apr-10 11:18N 39°04' W 073°56'1013.5
2014-Apr-10 10:33N 39°14' W 073°54'1313.6
2014-Apr-10 09:33N 39°28' W 073°53'1313.6
2014-Apr-10 08:33N 39°41' W 073°51'1313.3
2014-Apr-10 07:33N 39°55' W 073°50'2613.1
2014-Apr-10 05:32N 40°21' W 073°48'11 9.9
2014-Apr-10 04:26N 40°30' W 073°57'1112.2
2014-Apr-10 03:33N 40°39' W 074°04'4 4.4
2014-Apr-10 02:34N 40°41' W 074°09'0 0.0
2014-Apr-10 01:10N 40°41' W 074°09'0 0.0
2014-Apr-10 00:22N 40°41' W 074°09'0 0.0
2014-Apr-09 22:28N 40°41' W 074°09'0 0.0
2014-Apr-09 21:22N 40°41' W 074°09'0 0.0
2014-Apr-09 20:34N 40°41' W 074°09'0 0.0
2014-Apr-09 19:31N 40°41' W 074°09'0 0.0
2014-Apr-09 18:34N 40°41' W 074°09'0 0.0
2014-Apr-09 17:34N 40°41' W 074°09'0 0.0
2014-Apr-09 16:27N 40°41' W 074°09'0 0.0
2014-Apr-09 15:34N 40°41' W 074°09'0 0.0
2014-Apr-09 14:27N 40°41' W 074°09'0 0.0
2014-Apr-09 13:31N 40°41' W 074°09'0 0.0
2014-Apr-09 12:34N 40°41' W 074°09'0 0.0
2014-Apr-09 11:33N 40°41' W 074°09'2 1.8
2014-Apr-09 10:33N 40°39' W 074°09'5 4.8
2014-Apr-09 09:33N 40°37' W 074°03'1111.4
2014-Apr-09 08:33N 40°29' W 073°53'8 7.8
2014-Apr-09 07:32N 40°25' W 073°44'9 8.6
2014-Apr-09 06:30N 40°20' W 073°35'1111.2
2014-Apr-09 05:31N 40°13' W 073°23'1412.5
2014-Apr-09 04:23N 40°06' W 073°07'3512.2
2014-Apr-09 01:30N 39°48' W 072°28'10 9.7
2014-Apr-09 00:31N 39°41' W 072°19'1111.3
2014-Apr-08 23:33N 39°34' W 072°09'1212.3
2014-Apr-08 22:33N 39°28' W 071°54'1211.8
2014-Apr-08 21:33N 39°23' W 071°40'1212.0
2014-Apr-08 20:33N 39°17' W 071°27'1211.7
2014-Apr-08 19:33N 39°11' W 071°14'1110.6
2014-Apr-08 18:33N 39°04' W 071°05'1211.9
2014-Apr-08 17:33N 38°58' W 070°51'  

Dump ship's entire track history

sailing weather and tide predictions

Maersk Visby — 9V8827 — position and weather